Ana Sayfa
METAR-TAF:

METAR-TAF

Havaalanları :

Clayton, New Mexico, Amerika Birleşik Devletleri

Enlem: 36-26-54N, Boylam: 103-09-11W, yükseklik: 1513 m

Güncel hava durumu gözlemi

Rapor saat 00:55 UTC de 46 dakika önce yapıldı.
Rüzgar güney/güneybatıdan 14 kt
Sıcaklık 33°C
Nem 17%
Basınç 1022 hPa
Görüş mesafesi: 16.1 km
Açık gökyüzü

METAR: KCAO 140055Z AUTO 20014KT 10SM CLR 33/05 A3019 RMK AO2 SLP143 T03280050

Saat: 19:41 (01:41 UTC)


TAF: eksik

4.000'den fazla havaalanı için hava durumu gözlemleri ve tahminleri (METAR ve TAF raporları).

Kullanılabilir istasyonlar harita üzerinde sarı ve kırmızı noktalarla gösterilir.

İstasyonun adını görmek için fareyi noktanın üzerinde gezdirin.

Sonrasında hava gözlem ve tahminlerini görmek için tıklayın.

Haritayı değiştirmek için: yaklaştırmak için siyah artı işaretli yeşil düğmeye ve uzaklaştırmak için de eksi işaretli düğmeye hızla tıklayın; bitişik haritalar için yeşil okları kullanın.


METAR-TAF: